KSIF

Details ICAO KSIF
Name ROCKINGHAM COUNTY NC SHILOH
Region United States
Timezone America/New_York (UTC-4.0)
Plans Departing 5
Arriving 0
Stats Elevation 693 ft / 211 m (AMSL)
Location 36.437219° -79.851014°
Runways 1
Magnetic Variation 8.632° W
Sunrise 2018-05-26 10:06:53 UTC / 2018-05-26 06:06:53 Local
Sunset 2018-05-27 00:28:57 UTC / 2018-05-26 20:28:57 Local
Advertisement - Login to hide

Runways

ID Width Length Bearing (true) Bearing (mag) Surface Threshold Offset Overrun Length
13 100 ft / 30 m 5,196 ft / 1,584 m 124.69° 133.32° Asphalt 200 ft / 61 m 0 ft / 0 m
31 100 ft / 30 m 5,196 ft / 1,584 m 304.70° 313.33° Asphalt 0 ft / 0 m 0 ft / 0 m

Map

Weather


0- 5 10 15 20 25 30 35+ Temperature / ° C

Clouds and Precipitation
Forecast for 2018-05-26 12:00 UTC. Updated 5 hours ago

Ground ~20,000 ft ~40,000 ft Winds

METAR

KSIF 261615Z AUTO 22008KT 2SM +RA BKN018 OVC024 23/21 A2998 RMK AO2 P0008 T02290209

TAF

Not found

Frequencies

Recorded 119.77 MHz AWOS3
Unicom 122.80 MHz CTAF/UNICOM
Warning: Do not use this data for real-world aviation or navigation. No guarantee of current accuracy is given.